Time;durP1;ratioP1;P1;durP2;ratioP2;P2;SDS_P1;SDS_P2;PMS_P1;PMS_P2;Temp;Humidity;BMP_temperature;BMP_pressure;BME280_temperature;BME280_humidity;BME280_pressure;Samples;Min_cycle;Max_cycle;Signal;HPM_P1;HPM_P2
2022/06/15 00:02:08;;;;;;;79.70;61.30;;;26.60;99.90;;;;;;5056161;28;20031;-65
2022/06/15 00:04:34;;;;;;;75.60;59.78;;;26.70;99.90;;;;;;5056420;28;20547;-66
2022/06/15 00:07:01;;;;;;;75.28;56.63;;;26.70;99.90;;;;;;5055764;28;21334;-65
2022/06/15 00:09:28;;;;;;;82.25;60.38;;;26.80;99.90;;;;;;5056584;28;20116;-65
2022/06/15 00:11:55;;;;;;;127.95;99.80;;;26.80;99.90;;;;;;5056351;28;20104;-67
2022/06/15 00:14:26;;;;;;;98.55;72.07;;;26.80;99.90;;;;;;5056417;28;20100;-66
2022/06/15 00:16:53;;;;;;;93.32;66.88;;;26.80;99.90;;;;;;5055717;28;20060;-66
2022/06/15 00:19:20;;;;;;;83.68;62.15;;;26.70;99.90;;;;;;5054620;28;20095;-66
2022/06/15 00:21:48;;;;;;;80.18;59.78;;;26.70;99.90;;;;;;5056303;28;20096;-66
2022/06/15 00:24:15;;;;;;;78.97;59.15;;;26.70;99.90;;;;;;5055292;28;20124;-66
2022/06/15 00:26:42;;;;;;;80.30;61.45;;;26.80;99.90;;;;;;5054643;28;20021;-65
2022/06/15 00:29:10;;;;;;;89.43;64.13;;;26.80;99.90;;;;;;5055646;28;20503;-65
2022/06/15 00:31:37;;;;;;;83.15;61.53;;;26.70;99.90;;;;;;5052238;28;20108;-66
2022/06/15 00:34:04;;;;;;;81.43;62.40;;;26.80;99.90;;;;;;5046570;28;20021;-66
2022/06/15 00:36:31;;;;;;;75.85;57.95;;;26.80;99.90;;;;;;5048201;28;20017;-66
2022/06/15 00:38:59;;;;;;;111.50;84.70;;;26.80;99.90;;;;;;5054700;28;20086;-66
2022/06/15 00:41:30;;;;;;;210.65;155.25;;;26.90;99.90;;;;;;5055739;28;20017;-67
2022/06/15 00:44:00;;;;;;;211.67;148.73;;;27.00;99.90;;;;;;5055915;28;20045;-67
2022/06/15 00:46:40;;;;;;;144.10;103.45;;;27.00;99.90;;;;;;5054807;28;20277;-66
2022/06/15 00:49:22;;;;;;;304.83;179.20;;;26.90;99.90;;;;;;5055705;28;20036;-65
2022/06/15 00:51:54;;;;;;;201.85;117.32;;;27.00;99.90;;;;;;5055585;28;20054;-65
2022/06/15 00:54:22;;;;;;;188.07;128.77;;;27.00;99.90;;;;;;5055464;28;20040;-65
2022/06/15 00:56:50;;;;;;;145.35;103.18;;;27.10;99.90;;;;;;5055007;28;20112;-66
2022/06/15 00:59:25;;;;;;;121.82;90.82;;;27.10;99.90;;;;;;5048089;28;20055;-66
2022/06/15 01:01:52;;;;;;;102.75;69.07;;;27.10;99.90;;;;;;5048161;28;20060;-66
2022/06/15 01:04:20;;;;;;;102.57;73.38;;;27.20;99.90;;;;;;5043746;28;20032;-65
2022/06/15 01:06:48;;;;;;;92.20;64.47;;;27.20;99.90;;;;;;5053105;28;20079;-66
2022/06/15 01:09:27;;;;;;;82.38;59.35;;;27.30;99.90;;;;;;5055438;28;20021;-66
2022/06/15 01:11:55;;;;;;;74.10;51.30;;;27.50;99.90;;;;;;5055169;28;20100;-69
2022/06/15 01:14:31;;;;;;;84.38;56.22;;;27.50;99.90;;;;;;5055082;28;20387;-69
2022/06/15 01:17:07;;;;;;;70.05;50.13;;;27.60;99.90;;;;;;5053028;28;20386;-70
2022/06/15 01:19:48;;;;;;;69.47;48.95;;;27.70;99.90;;;;;;5053992;28;20531;-70
2022/06/15 01:22:28;;;;;;;68.80;45.63;;;27.80;99.90;;;;;;5055107;28;20025;-70
2022/06/15 01:24:57;;;;;;;65.40;44.28;;;27.90;99.90;;;;;;5054140;28;20025;-71
2022/06/15 01:27:43;;;;;;;68.75;43.65;;;28.00;99.90;;;;;;5053628;28;20029;-70
2022/06/15 01:30:35;;;;;;;64.47;43.15;;;28.10;99.90;;;;;;5053037;28;20025;-70
2022/06/15 01:33:14;;;;;;;52.97;38.85;;;28.20;99.90;;;;;;5051803;28;20372;-70
2022/06/15 01:36:01;;;;;;;61.22;38.28;;;28.30;99.90;;;;;;5050417;28;20440;-66
2022/06/15 01:38:57;;;;;;;50.45;33.13;;;28.40;99.90;;;;;;5052239;28;20025;-67
2022/06/15 01:41:27;;;;;;;40.60;30.15;;;28.50;99.90;;;;;;5053724;28;20075;-66
2022/06/15 01:43:56;;;;;;;48.63;32.88;;;28.60;99.90;;;;;;5051743;28;20028;-68
2022/06/15 01:46:24;;;;;;;47.40;30.38;;;28.70;99.90;;;;;;5054513;28;20025;-67
2022/06/15 01:48:54;;;;;;;41.70;28.80;;;28.70;99.90;;;;;;5054479;28;20092;-66
2022/06/15 01:51:26;;;;;;;40.03;27.70;;;28.80;99.90;;;;;;5053636;28;20037;-68
2022/06/15 01:54:08;;;;;;;45.67;29.95;;;28.90;99.90;;;;;;5041767;28;20404;-67
2022/06/15 01:56:38;;;;;;;36.20;26.00;;;28.90;99.90;;;;;;5052089;28;20044;-67
2022/06/15 01:59:31;;;;;;;144.63;119.95;;;29.00;99.90;;;;;;5053655;28;20060;-68
2022/06/15 02:02:01;;;;;;;73.05;49.08;;;29.10;99.90;;;;;;5040825;28;20048;-68
2022/06/15 02:04:39;;;;;;;86.55;60.75;;;29.10;99.90;;;;;;5034287;28;20087;-69
2022/06/15 02:07:18;;;;;;;47.92;36.08;;;29.20;99.90;;;;;;5034521;28;20029;-63
2022/06/15 02:10:06;;;;;;;86.80;55.28;;;29.30;99.90;;;;;;5046844;28;20383;-66
2022/06/15 02:12:51;;;;;;;74.35;47.10;;;29.40;99.90;;;;;;5053991;28;20041;-70
2022/06/15 02:15:25;;;;;;;53.35;36.78;;;29.50;99.90;;;;;;5054398;28;20029;-68
2022/06/15 02:17:54;;;;;;;28.13;20.20;;;29.50;99.90;;;;;;5052754;28;20091;-68
2022/06/15 02:20:28;;;;;;;26.92;20.02;;;29.60;99.90;;;;;;5054098;28;20048;-69
2022/06/15 02:23:00;;;;;;;28.67;20.73;;;29.80;99.90;;;;;;5054353;28;20096;-69
2022/06/15 02:25:35;;;;;;;32.58;20.83;;;29.80;99.90;;;;;;5053274;28;20017;-66
2022/06/15 02:28:03;;;;;;;28.13;18.98;;;29.90;99.90;;;;;;5053964;28;20116;-67
2022/06/15 02:30:31;;;;;;;30.60;21.67;;;29.90;99.90;;;;;;5054049;28;20028;-68
2022/06/15 02:33:10;;;;;;;25.02;16.73;;;29.90;99.90;;;;;;5054056;28;20033;-68
2022/06/15 02:35:36;;;;;;;24.30;17.83;;;29.80;99.90;;;;;;5047455;28;20376;-69
2022/06/15 02:38:03;;;;;;;25.10;17.63;;;29.70;99.90;;;;;;5047205;28;20017;-68
2022/06/15 02:40:30;;;;;;;23.67;16.65;;;29.70;99.90;;;;;;5049600;28;20077;-67
2022/06/15 02:42:59;;;;;;;25.45;16.20;;;29.80;99.90;;;;;;5046012;28;20491;-68
2022/06/15 02:45:34;;;;;;;21.20;17.75;;;29.70;99.90;;;;;;5049125;28;20076;-70
2022/06/15 02:48:04;;;;;;;22.48;16.42;;;29.80;99.90;;;;;;5052122;28;20041;-67
2022/06/15 02:50:38;;;;;;;24.27;17.17;;;29.90;99.90;;;;;;5049521;28;20483;-67
2022/06/15 02:53:13;;;;;;;29.65;18.08;;;29.90;99.90;;;;;;5042380;28;20036;-71
2022/06/15 02:55:40;;;;;;;29.13;17.85;;;29.90;99.90;;;;;;5047804;28;20482;-69
2022/06/15 02:58:13;;;;;;;26.40;17.98;;;29.90;99.90;;;;;;5046419;28;20025;-69
2022/06/15 03:00:41;;;;;;;19.27;15.32;;;29.80;99.90;;;;;;5049941;28;20052;-67
2022/06/15 03:03:08;;;;;;;22.90;16.48;;;29.90;99.90;;;;;;5052644;28;20118;-68
2022/06/15 03:05:34;;;;;;;21.80;15.57;;;29.90;99.90;;;;;;5053491;28;20020;-66
2022/06/15 03:08:01;;;;;;;23.63;17.17;;;29.90;99.90;;;;;;5050868;28;20032;-67
2022/06/15 03:10:28;;;;;;;27.33;17.83;;;29.90;99.90;;;;;;5048070;28;20116;-68
2022/06/15 03:12:55;;;;;;;32.55;19.45;;;29.80;99.90;;;;;;5045920;28;20056;-70
2022/06/15 03:15:22;;;;;;;25.98;17.77;;;29.80;99.90;;;;;;5045187;28;20045;-71
2022/06/15 03:17:52;;;;;;;31.45;17.30;;;29.80;99.90;;;;;;5037576;28;20075;-71
2022/06/15 03:20:20;;;;;;;31.60;19.70;;;29.70;99.90;;;;;;5043114;28;20104;-71
2022/06/15 03:22:48;;;;;;;32.33;20.88;;;29.70;99.90;;;;;;5049396;28;20017;-70
2022/06/15 03:25:15;;;;;;;32.88;21.33;;;29.70;99.90;;;;;;5051538;28;20025;-70
2022/06/15 03:27:42;;;;;;;26.00;19.30;;;29.80;99.90;;;;;;5052063;28;20527;-69
2022/06/15 03:30:10;;;;;;;24.02;18.00;;;30.00;99.90;;;;;;5049337;28;20036;-70
2022/06/15 03:32:36;;;;;;;26.38;19.38;;;30.20;99.90;;;;;;5050819;28;20033;-71
2022/06/15 03:35:04;;;;;;;27.15;19.92;;;30.30;99.90;;;;;;5047318;28;20048;-71
2022/06/15 03:37:31;;;;;;;21.55;15.50;;;30.40;99.90;;;;;;5042649;28;20025;-69
2022/06/15 03:39:58;;;;;;;22.17;14.75;;;30.30;99.90;;;;;;5047236;28;20341;-70
2022/06/15 03:42:26;;;;;;;25.25;16.90;;;30.30;99.90;;;;;;5053076;28;20395;-68
2022/06/15 03:44:54;;;;;;;21.80;15.63;;;30.40;99.90;;;;;;5043616;28;20105;-70
2022/06/15 03:47:21;;;;;;;23.40;13.77;;;30.40;99.90;;;;;;5052394;28;20497;-69
2022/06/15 03:49:50;;;;;;;16.65;11.73;;;30.30;99.90;;;;;;5044063;28;20459;-68
2022/06/15 03:52:19;;;;;;;19.90;15.40;;;30.30;99.90;;;;;;5051460;28;20036;-64
2022/06/15 03:54:46;;;;;;;22.70;13.60;;;30.20;99.90;;;;;;5051652;28;20064;-68
2022/06/15 03:57:15;;;;;;;24.08;16.10;;;30.10;99.90;;;;;;5060478;28;20033;-65
2022/06/15 03:59:42;;;;;;;27.35;17.77;;;30.10;99.90;;;;;;5040434;28;20460;-67
2022/06/15 04:02:09;;;;;;;26.15;17.50;;;30.00;99.90;;;;;;5055330;28;20017;-66
2022/06/15 04:04:36;;;;;;;22.42;16.48;;;30.10;99.90;;;;;;5057807;28;20028;-66
2022/06/15 04:07:04;;;;;;;25.75;17.73;;;30.10;99.90;;;;;;5053241;28;20133;-66
2022/06/15 04:09:31;;;;;;;22.42;17.92;;;30.10;99.90;;;;;;5052721;28;20430;-68
2022/06/15 04:11:59;;;;;;;20.48;16.92;;;30.00;99.90;;;;;;5059257;28;20040;-64
2022/06/15 04:14:26;;;;;;;21.25;17.42;;;30.00;99.90;;;;;;5066375;28;20474;-64
2022/06/15 04:16:53;;;;;;;22.38;15.25;;;30.00;99.90;;;;;;5050878;28;20387;-65
2022/06/15 04:19:26;;;;;;;25.80;19.15;;;30.00;99.90;;;;;;5053028;28;20021;-63
2022/06/15 04:21:53;;;;;;;28.45;20.17;;;30.10;99.90;;;;;;5051392;28;20025;-65
2022/06/15 04:24:21;;;;;;;24.58;19.40;;;30.10;99.90;;;;;;5050081;28;20444;-64
2022/06/15 04:26:49;;;;;;;30.45;20.15;;;30.10;99.90;;;;;;5052051;28;20352;-64
2022/06/15 04:29:18;;;;;;;25.67;20.27;;;30.20;99.90;;;;;;5049536;28;20059;-65
2022/06/15 04:31:45;;;;;;;28.45;23.02;;;30.30;99.90;;;;;;5045038;28;20203;-67
2022/06/15 04:34:12;;;;;;;26.00;21.00;;;30.30;99.90;;;;;;5055777;28;20024;-69
2022/06/15 04:36:41;;;;;;;33.33;21.88;;;30.30;99.90;;;;;;5053295;28;20061;-66
2022/06/15 04:39:10;;;;;;;29.27;22.17;;;30.40;99.90;;;;;;5053496;28;20025;-66
2022/06/15 04:41:39;;;;;;;31.38;23.38;;;30.40;99.90;;;;;;5055299;28;20114;-64
2022/06/15 04:44:07;;;;;;;30.60;24.75;;;30.40;99.90;;;;;;5050293;28;20201;-65
2022/06/15 04:46:35;;;;;;;29.27;21.88;;;30.50;99.90;;;;;;5055160;28;20033;-66
2022/06/15 04:49:02;;;;;;;22.20;19.60;;;30.70;99.90;;;;;;5049885;28;20086;-66
2022/06/15 04:51:41;;;;;;;34.38;23.90;;;30.80;99.90;;;;;;5054308;28;20060;-65
2022/06/15 04:54:09;;;;;;;25.17;20.67;;;30.80;99.90;;;;;;5054036;28;20028;-66
2022/06/15 04:56:37;;;;;;;29.63;19.67;;;30.80;99.90;;;;;;5055280;28;20197;-66
2022/06/15 04:59:05;;;;;;;26.83;19.23;;;30.80;99.90;;;;;;5051674;28;20571;-66
2022/06/15 05:01:32;;;;;;;22.02;17.92;;;30.80;99.90;;;;;;5053718;28;20421;-67
2022/06/15 05:03:58;;;;;;;25.10;18.05;;;30.80;99.90;;;;;;5055781;28;20100;-66
2022/06/15 05:06:32;;;;;;;25.35;19.73;;;30.90;99.90;;;;;;5053130;28;20118;-65
2022/06/15 05:09:11;;;;;;;28.63;19.70;;;30.90;99.90;;;;;;5052256;28;20453;-66
2022/06/15 05:11:52;;;;;;;31.05;18.02;;;30.90;99.90;;;;;;5053711;28;20037;-65
2022/06/15 05:14:31;;;;;;;22.05;15.50;;;30.90;99.90;;;;;;5047459;28;20037;-66
2022/06/15 05:17:20;;;;;;;21.17;15.35;;;30.80;99.90;;;;;;5032166;28;20112;-67
2022/06/15 05:19:50;;;;;;;27.73;18.77;;;30.80;99.90;;;;;;5051116;28;20116;-66
2022/06/15 05:22:16;;;;;;;23.63;16.63;;;30.90;99.90;;;;;;5048922;28;20392;-65
2022/06/15 05:24:44;;;;;;;24.25;17.23;;;31.00;99.90;;;;;;5055803;28;20518;-66
2022/06/15 05:27:11;;;;;;;22.02;15.90;;;31.00;99.90;;;;;;5054745;28;20029;-66
2022/06/15 05:29:38;;;;;;;23.45;18.35;;;31.00;99.90;;;;;;5051077;28;20044;-65
2022/06/15 05:32:06;;;;;;;22.42;17.40;;;31.10;99.90;;;;;;5054841;28;20451;-65
2022/06/15 05:34:34;;;;;;;23.65;16.98;;;31.20;99.90;;;;;;5050247;28;20289;-64
2022/06/15 05:37:01;;;;;;;29.23;20.00;;;31.20;99.90;;;;;;5047406;28;20478;-67
2022/06/15 05:39:28;;;;;;;24.08;17.88;;;31.00;99.90;;;;;;5050271;28;20060;-66
2022/06/15 05:41:55;;;;;;;28.25;20.58;;;31.00;99.90;;;;;;5055176;28;20033;-67
2022/06/15 05:46:58;;;;;;;24.00;18.50;;;31.10;99.90;;;;;;5057900;28;20025;-66
2022/06/15 05:49:25;;;;;;;25.92;19.20;;;31.10;99.90;;;;;;5063650;28;20024;-65
2022/06/15 05:51:52;;;;;;;22.92;18.52;;;31.10;99.90;;;;;;5057092;28;20437;-63
2022/06/15 05:54:19;;;;;;;24.70;18.00;;;31.20;99.90;;;;;;5065047;28;20012;-65
2022/06/15 05:56:47;;;;;;;28.10;19.95;;;31.30;99.90;;;;;;5063816;28;20430;-66
2022/06/15 05:59:14;;;;;;;25.17;19.73;;;31.30;99.90;;;;;;5059026;28;20286;-63
2022/06/15 06:01:41;;;;;;;23.80;19.38;;;31.40;99.90;;;;;;5064164;28;20024;-65
2022/06/15 06:04:11;;;;;;;31.10;22.92;;;31.30;99.90;;;;;;5058092;28;20122;-65
2022/06/15 06:06:38;;;;;;;25.20;20.35;;;31.30;99.90;;;;;;5053518;28;20029;-66
2022/06/15 06:09:05;;;;;;;23.52;20.33;;;31.30;99.90;;;;;;5059768;28;20029;-64
2022/06/15 06:11:31;;;;;;;20.88;18.58;;;31.30;99.90;;;;;;5063522;28;20028;-65
2022/06/15 06:13:58;;;;;;;24.25;18.40;;;31.30;99.90;;;;;;5058518;28;20435;-66
2022/06/15 06:16:25;;;;;;;27.45;21.48;;;31.40;99.90;;;;;;5063180;28;20124;-64
2022/06/15 06:18:52;;;;;;;28.63;21.92;;;31.50;99.90;;;;;;5062165;28;20424;-64
2022/06/15 06:21:20;;;;;;;44.13;33.00;;;31.50;99.90;;;;;;5053882;28;20018;-65
2022/06/15 06:23:47;;;;;;;34.70;27.05;;;31.50;99.90;;;;;;5049115;28;20029;-66
2022/06/15 06:26:21;;;;;;;34.60;27.95;;;31.50;99.90;;;;;;5060152;28;20090;-65
2022/06/15 06:28:48;;;;;;;28.10;21.58;;;31.50;99.90;;;;;;5058791;28;20031;-67
2022/06/15 06:31:16;;;;;;;40.08;30.30;;;31.40;99.90;;;;;;5042276;28;21595;-65
2022/06/15 06:33:42;;;;;;;37.85;31.02;;;31.30;99.90;;;;;;5046576;28;20033;-66
2022/06/15 06:36:25;;;;;;;24.67;22.00;;;31.40;99.90;;;;;;5051883;28;20029;-67
2022/06/15 06:38:52;;;;;;;26.92;20.75;;;31.60;99.90;;;;;;5043896;28;20468;-66
2022/06/15 06:41:22;;;;;;;23.15;17.42;;;31.60;99.90;;;;;;5051063;28;20029;-65
2022/06/15 06:43:49;;;;;;;54.83;39.90;;;31.80;99.90;;;;;;5046626;28;20036;-64
2022/06/15 06:46:16;;;;;;;29.50;22.35;;;31.90;99.90;;;;;;5051094;28;20407;-66
2022/06/15 06:48:43;;;;;;;26.60;20.63;;;32.00;99.90;;;;;;5042431;28;20076;-64
2022/06/15 06:51:10;;;;;;;33.05;23.35;;;32.00;99.90;;;;;;5040465;28;20025;-64
2022/06/15 06:53:37;;;;;;;45.88;34.03;;;31.90;99.90;;;;;;5049467;28;20094;-66
2022/06/15 06:56:07;;;;;;;28.15;23.23;;;31.80;99.90;;;;;;5056463;28;20415;-65
2022/06/15 06:58:34;;;;;;;21.17;18.77;;;31.90;99.90;;;;;;5053698;28;20185;-65
2022/06/15 07:01:01;;;;;;;22.83;17.55;;;32.00;99.90;;;;;;5059336;28;20494;-66
2022/06/15 07:03:28;;;;;;;24.35;18.95;;;32.10;99.90;;;;;;5059996;28;20459;-65
2022/06/15 07:06:07;;;;;;;18.85;15.30;;;32.00;99.90;;;;;;5059364;28;20290;-66
2022/06/15 07:08:36;;;;;;;27.15;20.45;;;31.90;99.90;;;;;;5055451;28;20483;-66
2022/06/15 07:11:10;;;;;;;22.77;18.42;;;31.80;99.90;;;;;;5052200;28;20364;-66
2022/06/15 07:13:37;;;;;;;29.90;20.63;;;31.70;99.90;;;;;;5054092;28;20025;-66
2022/06/15 07:16:08;;;;;;;24.00;16.50;;;31.80;99.90;;;;;;5053117;28;20107;-65
2022/06/15 07:18:35;;;;;;;16.87;13.70;;;31.90;99.90;;;;;;5052150;28;20033;-65
2022/06/15 07:21:06;;;;;;;18.88;13.55;;;31.90;99.90;;;;;;5058804;28;20013;-65
2022/06/15 07:23:33;;;;;;;17.92;14.05;;;32.00;99.90;;;;;;5056457;28;20025;-64
2022/06/15 07:26:04;;;;;;;32.30;27.83;;;32.00;99.90;;;;;;5051256;28;20162;-65
2022/06/15 07:28:31;;;;;;;67.20;48.90;;;31.90;99.90;;;;;;5052047;28;20156;-65
2022/06/15 07:30:58;;;;;;;19.88;15.85;;;31.90;99.90;;;;;;5061135;28;20414;-65
2022/06/15 07:33:25;;;;;;;14.73;12.85;;;31.80;99.90;;;;;;5048891;28;20044;-65
2022/06/15 07:35:52;;;;;;;68.47;50.30;;;31.80;99.90;;;;;;5062635;28;20037;-65
2022/06/15 07:38:19;;;;;;;63.88;49.60;;;31.80;99.90;;;;;;5056453;28;20370;-65
2022/06/15 07:40:47;;;;;;;34.25;27.90;;;31.80;99.90;;;;;;5044692;28;20028;-65
2022/06/15 07:43:14;;;;;;;18.17;14.55;;;31.60;99.90;;;;;;5047166;28;20021;-66
2022/06/15 07:45:41;;;;;;;76.80;56.80;;;31.60;99.90;;;;;;5046018;28;20033;-65
2022/06/15 07:50:56;;;;;;;95.03;71.72;;;31.50;99.90;;;;;;5054845;28;20119;-66
2022/06/15 07:53:22;;;;;;;92.72;67.32;;;31.40;99.90;;;;;;5045061;28;20515;-66
2022/06/15 07:55:52;;;;;;;18.88;13.43;;;31.30;99.90;;;;;;5048859;28;20490;-66
2022/06/15 07:58:19;;;;;;;45.20;31.20;;;31.20;99.90;;;;;;5048136;28;20064;-66
2022/06/15 08:00:48;;;;;;;30.90;18.17;;;31.20;99.90;;;;;;5050522;28;20020;-65
2022/06/15 08:03:16;;;;;;;29.20;17.08;;;31.10;99.90;;;;;;5050877;28;20027;-66
2022/06/15 08:05:46;;;;;;;22.55;15.23;;;31.10;99.90;;;;;;5052507;28;20052;-66
2022/06/15 08:08:18;;;;;;;13.00;10.32;;;31.00;99.90;;;;;;5057258;28;20074;-65
2022/06/15 08:10:45;;;;;;;23.90;15.38;;;30.90;99.90;;;;;;5057454;28;20429;-65
2022/06/15 08:13:13;;;;;;;22.70;16.20;;;30.90;99.90;;;;;;5052446;28;20043;-66
2022/06/15 08:15:41;;;;;;;32.33;21.40;;;30.80;99.90;;;;;;5059768;28;20033;-65
2022/06/15 08:18:22;;;;;;;43.22;29.73;;;30.70;99.90;;;;;;5057938;28;20029;-65
2022/06/15 08:20:56;;;;;;;25.73;14.57;;;30.70;99.90;;;;;;5047881;28;20040;-66
2022/06/15 08:23:26;;;;;;;28.40;17.23;;;30.60;99.90;;;;;;5046689;28;20060;-66
2022/06/15 08:25:56;;;;;;;28.30;18.83;;;30.60;99.90;;;;;;5049514;28;20029;-67
2022/06/15 08:28:28;;;;;;;39.38;24.20;;;30.50;99.90;;;;;;5050803;28;20029;-66
2022/06/15 08:30:55;;;;;;;17.50;12.50;;;30.50;99.90;;;;;;5059823;28;20021;-66
2022/06/15 08:33:22;;;;;;;20.20;13.07;;;30.40;99.90;;;;;;5048890;28;20037;-65
2022/06/15 08:35:50;;;;;;;16.17;11.90;;;30.30;99.90;;;;;;5047631;28;20026;-65
2022/06/15 08:38:20;;;;;;;16.50;10.50;;;30.30;99.90;;;;;;5051953;28;20021;-66
2022/06/15 08:41:03;;;;;;;16.38;9.65;;;30.20;99.90;;;;;;5048893;28;20489;-64
2022/06/15 08:43:55;;;;;;;16.30;10.60;;;30.10;99.90;;;;;;5051912;28;20092;-65
2022/06/15 08:46:31;;;;;;;19.90;9.95;;;30.10;99.90;;;;;;5038793;28;20456;-68
2022/06/15 08:49:38;;;;;;;14.57;8.90;;;30.10;99.90;;;;;;5051471;28;20044;-66
2022/06/15 08:52:14;;;;;;;17.92;8.40;;;30.10;99.90;;;;;;5056359;28;20044;-67
2022/06/15 08:54:48;;;;;;;12.10;8.00;;;30.00;99.90;;;;;;5054280;28;20054;-66
2022/06/15 08:57:23;;;;;;;16.95;8.85;;;30.00;99.90;;;;;;5061129;28;20037;-65
2022/06/15 08:59:58;;;;;;;12.48;8.73;;;30.00;99.90;;;;;;5063083;28;20039;-66
2022/06/15 09:02:26;;;;;;;12.50;8.50;;;30.00;99.90;;;;;;5063795;28;20032;-65
2022/06/15 09:05:09;;;;;;;12.45;8.52;;;29.90;99.90;;;;;;5059438;28;20028;-66
2022/06/15 09:08:04;;;;;;;42.58;35.80;;;29.90;99.90;;;;;;5058754;28;20044;-65
2022/06/15 09:10:43;;;;;;;31.25;21.33;;;29.90;99.90;;;;;;5054791;28;20021;-67
2022/06/15 09:13:25;;;;;;;30.00;21.10;;;29.80;99.90;;;;;;5047966;28;20032;-68
2022/06/15 09:15:53;;;;;;;19.10;13.73;;;29.80;99.90;;;;;;5051837;28;20017;-67
2022/06/15 09:18:28;;;;;;;37.05;16.02;;;29.80;99.90;;;;;;5050399;28;20031;-65
2022/06/15 09:20:58;;;;;;;24.13;16.20;;;29.70;99.90;;;;;;5039580;28;20109;-65
2022/06/15 09:23:34;;;;;;;32.35;21.75;;;29.70;99.90;;;;;;5050771;28;20029;-67
2022/06/15 09:26:11;;;;;;;49.13;35.63;;;29.70;99.90;;;;;;5050085;28;20039;-68
2022/06/15 09:28:58;;;;;;;59.03;45.17;;;29.70;99.90;;;;;;5050176;28;20029;-65
2022/06/15 09:31:32;;;;;;;24.58;17.67;;;29.70;99.90;;;;;;5051668;28;20033;-65
2022/06/15 09:34:03;;;;;;;13.70;10.65;;;29.70;99.90;;;;;;5049969;28;20075;-64
2022/06/15 09:36:38;;;;;;;17.92;12.23;;;29.70;99.90;;;;;;5054704;28;20387;-67
2022/06/15 09:39:05;;;;;;;24.88;16.55;;;29.60;99.90;;;;;;5049744;28;20022;-65
2022/06/15 09:41:38;;;;;;;22.48;13.73;;;29.60;99.90;;;;;;5050294;28;20317;-66
2022/06/15 09:44:25;;;;;;;17.80;12.70;;;29.50;99.90;;;;;;5049628;28;20035;-67
2022/06/15 09:46:54;;;;;;;26.13;13.60;;;29.50;99.90;;;;;;5051543;28;20040;-67
2022/06/15 09:49:46;;;;;;;23.73;14.90;;;29.40;99.90;;;;;;5051308;28;20086;-67
2022/06/15 09:52:14;;;;;;;16.57;12.87;;;29.50;99.90;;;;;;5050308;28;20387;-67
2022/06/15 09:54:46;;;;;;;18.70;13.57;;;29.50;99.90;;;;;;5051489;28;20266;-67
2022/06/15 09:57:13;;;;;;;17.95;12.95;;;29.40;99.90;;;;;;5050983;28;20021;-68
2022/06/15 09:59:41;;;;;;;17.67;12.25;;;29.40;99.90;;;;;;5052879;28;20159;-69
2022/06/15 10:02:33;;;;;;;21.33;13.90;;;29.30;99.90;;;;;;5051670;28;20049;-67
2022/06/15 10:05:04;;;;;;;26.77;17.73;;;29.40;99.90;;;;;;5050826;28;20464;-68
2022/06/15 10:07:43;;;;;;;22.20;17.63;;;29.30;99.90;;;;;;5047201;28;20497;-65
2022/06/15 10:10:21;;;;;;;22.83;17.65;;;29.30;99.90;;;;;;5051945;28;20032;-67
2022/06/15 10:15:50;;;;;;;24.92;16.58;;;29.20;99.90;;;;;;5053295;28;20029;-66
2022/06/15 10:18:40;;;;;;;26.02;16.67;;;29.20;99.90;;;;;;5046366;28;20102;-68
2022/06/15 10:21:12;;;;;;;32.13;20.33;;;29.10;99.90;;;;;;5044428;28;20025;-67
2022/06/15 10:23:49;;;;;;;30.95;21.40;;;29.20;99.90;;;;;;5048569;28;20028;-67
2022/06/15 10:26:26;;;;;;;30.55;19.67;;;29.10;99.90;;;;;;5047242;28;20498;-69
2022/06/15 10:28:53;;;;;;;38.75;26.63;;;29.10;99.90;;;;;;5049314;28;20028;-69
2022/06/15 10:31:32;;;;;;;27.15;17.92;;;29.10;99.90;;;;;;5044898;28;20415;-68
2022/06/15 10:34:21;;;;;;;23.00;16.52;;;28.90;99.90;;;;;;5048003;28;20119;-69
2022/06/15 10:36:55;;;;;;;31.95;21.15;;;28.90;99.90;;;;;;5053089;28;20025;-68
2022/06/15 10:39:29;;;;;;;60.83;38.63;;;28.90;99.90;;;;;;5051712;28;20056;-66
2022/06/15 10:42:17;;;;;;;36.75;23.83;;;28.90;99.90;;;;;;5049469;28;20032;-65
2022/06/15 10:44:54;;;;;;;25.98;18.02;;;28.80;99.90;;;;;;5051247;28;20060;-65
2022/06/15 10:47:27;;;;;;;31.50;17.88;;;28.80;99.90;;;;;;5050782;28;20030;-68
2022/06/15 10:50:00;;;;;;;41.00;24.35;;;28.80;99.90;;;;;;5050694;28;20057;-67
2022/06/15 10:52:36;;;;;;;33.90;20.45;;;28.80;99.90;;;;;;5051133;28;20036;-68
2022/06/15 11:03:38;;;;;;;23.15;15.55;;;28.70;99.90;;;;;;5049296;28;20089;-66
2022/06/15 11:06:06;;;;;;;28.73;18.88;;;28.60;99.90;;;;;;5051351;28;20021;-67
2022/06/15 11:08:35;;;;;;;21.10;15.02;;;28.60;99.90;;;;;;5044777;28;20028;-65
2022/06/15 11:11:26;;;;;;;31.85;20.77;;;28.60;99.90;;;;;;5050091;28;20033;-64
2022/06/15 11:14:06;;;;;;;34.60;23.25;;;28.60;99.90;;;;;;5045170;28;20053;-66
2022/06/15 11:19:26;;;;;;;26.15;18.52;;;28.60;99.90;;;;;;5047282;28;20126;-65
2022/06/15 11:22:01;;;;;;;31.63;21.17;;;28.70;99.90;;;;;;5036396;28;20029;-65
2022/06/15 11:24:40;;;;;;;32.28;22.83;;;28.70;99.90;;;;;;5038923;28;20029;-65
2022/06/15 11:27:33;;;;;;;28.77;16.50;;;28.70;99.90;;;;;;5040924;28;20040;-66
2022/06/15 11:30:20;;;;;;;36.80;22.15;;;28.60;99.90;;;;;;5034298;28;20033;-65
2022/06/15 11:32:51;;;;;;;40.80;23.25;;;28.60;99.90;;;;;;5045901;28;20045;-64
2022/06/15 11:35:25;;;;;;;48.77;30.77;;;28.50;99.90;;;;;;5035127;28;20032;-64
2022/06/15 11:38:02;;;;;;;64.53;37.15;;;28.50;99.90;;;;;;5035861;28;20215;-65
2022/06/15 11:40:52;;;;;;;55.10;31.65;;;28.50;99.90;;;;;;5032594;28;20431;-64
2022/06/15 11:43:19;;;;;;;70.97;45.85;;;28.50;99.90;;;;;;5037154;28;20120;-64
2022/06/15 11:45:59;;;;;;;116.00;70.90;;;28.50;99.90;;;;;;5047289;28;20383;-64
2022/06/15 11:48:34;;;;;;;73.35;48.75;;;28.50;99.90;;;;;;5037280;28;20029;-64
2022/06/15 11:51:10;;;;;;;102.20;62.53;;;28.50;99.90;;;;;;5040613;28;20475;-64
2022/06/15 11:53:46;;;;;;;47.67;31.33;;;28.50;99.90;;;;;;5045114;28;20029;-64
2022/06/15 11:56:16;;;;;;;53.33;32.63;;;28.50;99.90;;;;;;5047435;28;20047;-66
2022/06/15 11:59:07;;;;;;;48.60;31.83;;;28.50;99.90;;;;;;5059210;28;20036;-65
2022/06/15 12:01:48;;;;;;;40.17;25.17;;;28.50;99.90;;;;;;5062756;28;20076;-62
2022/06/15 12:04:17;;;;;;;38.03;24.25;;;28.50;99.90;;;;;;5055711;28;20387;-66
2022/06/15 12:07:03;;;;;;;41.05;23.45;;;28.50;99.90;;;;;;5058016;28;20029;-62
2022/06/15 12:09:44;;;;;;;93.82;70.45;;;28.50;99.90;;;;;;5057934;28;20070;-63
2022/06/15 12:15:17;;;;;;;47.22;33.60;;;28.40;99.90;;;;;;5055980;28;20361;-64
2022/06/15 12:18:02;;;;;;;38.88;24.17;;;28.40;99.90;;;;;;5058953;28;20048;-65
2022/06/15 12:20:29;;;;;;;46.75;26.63;;;28.40;99.90;;;;;;5064739;28;20141;-66
2022/06/15 12:23:02;;;;;;;33.53;20.40;;;28.30;99.90;;;;;;5063027;28;20017;-65
2022/06/15 12:25:36;;;;;;;43.42;31.73;;;28.40;99.90;;;;;;5070798;28;20021;-65
2022/06/15 12:28:29;;;;;;;34.00;15.93;;;28.40;99.90;;;;;;5073913;28;20039;-65
2022/06/15 12:31:16;;;;;;;25.20;12.27;;;28.30;99.90;;;;;;5066345;28;20054;-65
2022/06/15 12:33:56;;;;;;;22.95;12.02;;;28.20;99.90;;;;;;5059713;28;20043;-65
2022/06/15 12:36:34;;;;;;;20.27;11.88;;;28.20;99.90;;;;;;5069433;28;20017;-65
2022/06/15 12:39:09;;;;;;;17.52;9.95;;;28.20;99.90;;;;;;5074107;28;20026;-65
2022/06/15 12:44:29;;;;;;;13.55;9.20;;;28.10;99.90;;;;;;5072763;28;20021;-65
2022/06/15 12:46:57;;;;;;;16.23;9.68;;;28.10;99.90;;;;;;5050409;28;20104;-65
2022/06/15 12:49:29;;;;;;;17.92;10.02;;;28.10;99.90;;;;;;5055876;28;20112;-67
2022/06/15 12:52:01;;;;;;;17.50;8.73;;;28.00;99.90;;;;;;5056041;28;20582;-67
2022/06/15 12:54:42;;;;;;;16.75;10.15;;;28.00;99.90;;;;;;5054623;28;20040;-66
2022/06/15 12:57:28;;;;;;;12.85;8.38;;;28.00;99.90;;;;;;5055564;28;20438;-64
2022/06/15 13:00:13;;;;;;;25.40;14.13;;;28.00;99.90;;;;;;5060124;28;20032;-64
2022/06/15 13:02:47;;;;;;;23.05;13.43;;;28.00;99.90;;;;;;5058481;28;20021;-64
2022/06/15 13:05:26;;;;;;;23.58;13.60;;;28.00;99.90;;;;;;5070064;28;20398;-65
2022/06/15 13:08:15;;;;;;;26.50;12.85;;;28.00;99.90;;;;;;5069784;28;20035;-66
2022/06/15 13:11:10;;;;;;;23.70;12.77;;;28.00;99.90;;;;;;5072831;28;20024;-64
2022/06/15 13:13:45;;;;;;;21.15;12.60;;;28.00;99.90;;;;;;5071669;28;20059;-66
2022/06/15 13:16:14;;;;;;;26.08;13.80;;;28.00;99.90;;;;;;5060584;28;20025;-65
2022/06/15 13:18:48;;;;;;;27.38;13.70;;;28.10;99.90;;;;;;5044010;28;20451;-66